ANA402 RJSK-RJTT
Flight info
| Callsign | ANA402 |
|---|---|
| Flight time | 0h 49m |
| Altitude | 36000 |
| Route | YTE Y32 RUBIS Y10 GODIN |
| Aircraft | A20N/M-SDE2E3FGHIRWXY/LB1 |
Departure
| Time | 2026-04-24 13:56 |
|---|---|
| Airport | Akita Airport (RJSK) |
Arrival
| Time | 2026-04-24 14:45 |
|---|---|
| Airport | Tokyo Haneda International Airport (RJTT) |
| Time | Latitude | Longitude | Altitude | Speed | Heading |
|---|---|---|---|---|---|
| 2026-04-24 13:40 | 39.61248 | 140.21919 | 318 ft | 0 kts | 185° |
| 2026-04-24 13:47 | 39.61251 | 140.21919 | 318 ft | 2 kts | 185° |
| 2026-04-24 13:48 | 39.61266 | 140.21921 | 318 ft | 2 kts | 186° |
| 2026-04-24 13:48 | 39.61281 | 140.21922 | 318 ft | 2 kts | 185° |
| 2026-04-24 13:48 | 39.61296 | 140.21925 | 317 ft | 2 kts | 185° |
| 2026-04-24 13:48 | 39.61311 | 140.21927 | 317 ft | 2 kts | 185° |
| 2026-04-24 13:49 | 39.61326 | 140.21928 | 316 ft | 2 kts | 185° |
| 2026-04-24 13:49 | 39.61341 | 140.21930 | 316 ft | 2 kts | 185° |
| 2026-04-24 13:49 | 39.61356 | 140.21931 | 316 ft | 2 kts | 185° |
| 2026-04-24 13:49 | 39.61371 | 140.21935 | 315 ft | 2 kts | 185° |
| 2026-04-24 13:50 | 39.61380 | 140.21936 | 315 ft | 1 kts | 178° |
| 2026-04-24 13:50 | 39.61391 | 140.21927 | 315 ft | 2 kts | 115° |
| 2026-04-24 13:50 | 39.61393 | 140.21918 | 315 ft | 1 kts | 87° |
| 2026-04-24 13:50 | 39.61393 | 140.21910 | 315 ft | 0 kts | 95° |
| 2026-04-24 13:52 | 39.61391 | 140.21939 | 315 ft | 8 kts | 96° |
| 2026-04-24 13:52 | 39.61382 | 140.22047 | 316 ft | 13 kts | 96° |
| 2026-04-24 13:52 | 39.61371 | 140.22171 | 316 ft | 14 kts | 97° |
| 2026-04-24 13:53 | 39.61358 | 140.22302 | 316 ft | 15 kts | 96° |
| 2026-04-24 13:53 | 39.61347 | 140.22430 | 315 ft | 13 kts | 96° |
| 2026-04-24 13:53 | 39.61332 | 140.22588 | 313 ft | 21 kts | 96° |
| 2026-04-24 13:53 | 39.61315 | 140.22777 | 313 ft | 20 kts | 97° |
| 2026-04-24 13:54 | 39.61297 | 140.22990 | 314 ft | 26 kts | 95° |
| 2026-04-24 13:54 | 39.61280 | 140.23164 | 316 ft | 5 kts | 96° |
| 2026-04-24 13:54 | 39.61277 | 140.23218 | 317 ft | 10 kts | 83° |
| 2026-04-24 13:54 | 39.61286 | 140.23250 | 317 ft | 3 kts | 64° |
| 2026-04-24 13:55 | 39.61304 | 140.23276 | 318 ft | 4 kts | 29° |
| 2026-04-24 13:55 | 39.61344 | 140.23286 | 318 ft | 7 kts | 10° |
| 2026-04-24 13:55 | 39.61418 | 140.23283 | 319 ft | 14 kts | 326° |
| 2026-04-24 13:55 | 39.61459 | 140.23047 | 317 ft | 57 kts | 277° |
| 2026-04-24 13:56 | 39.61533 | 140.22218 | 316 ft | 125 kts | 277° |
| 2026-04-24 13:56 | 39.61648 | 140.20889 | 481 ft | 162 kts | 277° |
| 2026-04-24 13:56 | 39.61778 | 140.19446 | 1128 ft | 165 kts | 274° |
| 2026-04-24 13:56 | 39.61474 | 140.18047 | 1797 ft | 172 kts | 228° |
| 2026-04-24 13:57 | 39.60396 | 140.17423 | 2348 ft | 182 kts | 178° |
| 2026-04-24 13:57 | 39.59100 | 140.17720 | 2847 ft | 197 kts | 167° |
| 2026-04-24 13:57 | 39.57700 | 140.18037 | 3371 ft | 212 kts | 171° |
| 2026-04-24 13:57 | 39.56203 | 140.18274 | 3928 ft | 227 kts | 173° |
| 2026-04-24 13:58 | 39.54581 | 140.18506 | 4567 ft | 240 kts | 173° |
| 2026-04-24 13:58 | 39.52920 | 140.18744 | 5387 ft | 244 kts | 174° |
| 2026-04-24 13:58 | 39.51241 | 140.18990 | 6211 ft | 248 kts | 174° |
| 2026-04-24 13:58 | 39.49486 | 140.19249 | 6848 ft | 261 kts | 174° |
| 2026-04-24 13:59 | 39.47620 | 140.19527 | 7344 ft | 279 kts | 174° |
| 2026-04-24 13:59 | 39.45658 | 140.19820 | 7921 ft | 294 kts | 175° |
| 2026-04-24 13:59 | 39.43589 | 140.20132 | 8698 ft | 300 kts | 175° |
| 2026-04-24 13:59 | 39.41523 | 140.20447 | 9494 ft | 304 kts | 175° |
| 2026-04-24 14:00 | 39.39413 | 140.20767 | 10239 ft | 310 kts | 176° |
| 2026-04-24 14:00 | 39.37265 | 140.21091 | 10911 ft | 317 kts | 176° |
| 2026-04-24 14:00 | 39.35002 | 140.21428 | 11320 ft | 334 kts | 176° |
| 2026-04-24 14:00 | 39.32631 | 140.21782 | 11664 ft | 352 kts | 176° |
| 2026-04-24 14:01 | 39.30146 | 140.22153 | 11977 ft | 370 kts | 176° |
| 2026-04-24 14:01 | 39.27525 | 140.22545 | 12277 ft | 387 kts | 176° |
| 2026-04-24 14:01 | 39.24807 | 140.22954 | 12557 ft | 403 kts | 176° |
| 2026-04-24 14:01 | 39.21949 | 140.23384 | 12822 ft | 418 kts | 176° |
| 2026-04-24 14:02 | 39.19038 | 140.23825 | 13128 ft | 431 kts | 176° |
| 2026-04-24 14:02 | 39.16038 | 140.24277 | 13675 ft | 435 kts | 176° |
| 2026-04-24 14:02 | 39.13041 | 140.24731 | 14278 ft | 438 kts | 176° |
| 2026-04-24 14:02 | 39.09969 | 140.25197 | 14860 ft | 441 kts | 176° |
| 2026-04-24 14:03 | 39.06948 | 140.25653 | 15399 ft | 445 kts | 176° |
| 2026-04-24 14:03 | 39.03835 | 140.26121 | 15965 ft | 447 kts | 177° |
| 2026-04-24 14:03 | 39.00736 | 140.26585 | 16496 ft | 450 kts | 177° |
| 2026-04-24 14:03 | 38.97621 | 140.27052 | 16993 ft | 453 kts | 177° |
| 2026-04-24 14:04 | 38.94511 | 140.27518 | 17471 ft | 456 kts | 178° |
| 2026-04-24 14:04 | 38.91357 | 140.27989 | 17951 ft | 458 kts | 178° |
| 2026-04-24 14:04 | 38.88161 | 140.28465 | 18427 ft | 460 kts | 178° |
| 2026-04-24 14:04 | 38.84988 | 140.28940 | 18904 ft | 462 kts | 178° |
| 2026-04-24 14:05 | 38.81809 | 140.29413 | 19346 ft | 465 kts | 178° |
| 2026-04-24 14:05 | 38.78556 | 140.29897 | 19797 ft | 467 kts | 178° |
| 2026-04-24 14:05 | 38.75325 | 140.30377 | 20235 ft | 469 kts | 178° |
| 2026-04-24 14:05 | 38.72123 | 140.30853 | 20666 ft | 470 kts | 178° |
| 2026-04-24 14:06 | 38.68869 | 140.31340 | 21123 ft | 471 kts | 178° |
| 2026-04-24 14:06 | 38.65585 | 140.31828 | 21537 ft | 473 kts | 178° |
| 2026-04-24 14:06 | 38.62326 | 140.32310 | 21919 ft | 476 kts | 178° |
| 2026-04-24 14:06 | 38.59035 | 140.32799 | 22320 ft | 478 kts | 179° |
| 2026-04-24 14:07 | 38.55745 | 140.33289 | 22698 ft | 479 kts | 179° |
| 2026-04-24 14:07 | 38.52426 | 140.33780 | 23074 ft | 481 kts | 179° |
| 2026-04-24 14:07 | 38.49096 | 140.34273 | 23422 ft | 482 kts | 179° |
| 2026-04-24 14:07 | 38.45763 | 140.34767 | 23849 ft | 481 kts | 179° |
| 2026-04-24 14:08 | 38.42484 | 140.35288 | 24349 ft | 480 kts | 178° |
| 2026-04-24 14:08 | 38.39188 | 140.36050 | 24841 ft | 481 kts | 174° |
| 2026-04-24 14:08 | 38.35928 | 140.37096 | 25327 ft | 482 kts | 170° |
| 2026-04-24 14:08 | 38.32758 | 140.38399 | 25828 ft | 482 kts | 168° |
| 2026-04-24 14:09 | 38.29610 | 140.39780 | 26339 ft | 480 kts | 167° |
| 2026-04-24 14:09 | 38.26467 | 140.41168 | 26822 ft | 477 kts | 168° |
| 2026-04-24 14:09 | 38.23349 | 140.42541 | 27293 ft | 475 kts | 168° |
| 2026-04-24 14:09 | 38.20219 | 140.43907 | 27740 ft | 473 kts | 168° |
| 2026-04-24 14:10 | 38.17131 | 140.45248 | 28160 ft | 472 kts | 169° |
| 2026-04-24 14:10 | 38.14024 | 140.46594 | 28597 ft | 469 kts | 169° |
| 2026-04-24 14:10 | 38.10951 | 140.47925 | 28980 ft | 468 kts | 169° |
| 2026-04-24 14:10 | 38.07855 | 140.49265 | 29401 ft | 465 kts | 170° |
| 2026-04-24 14:11 | 38.04801 | 140.50588 | 29804 ft | 463 kts | 170° |
| 2026-04-24 14:11 | 38.01775 | 140.51895 | 30176 ft | 461 kts | 170° |
| 2026-04-24 14:11 | 37.95760 | 140.54497 | 30802 ft | 457 kts | 171° |
| 2026-04-24 14:12 | 37.92750 | 140.55797 | 31103 ft | 456 kts | 172° |
| 2026-04-24 14:12 | 37.89732 | 140.57095 | 31358 ft | 455 kts | 172° |
| 2026-04-24 14:12 | 37.86769 | 140.58372 | 31657 ft | 453 kts | 173° |
| 2026-04-24 14:12 | 37.83794 | 140.59650 | 32026 ft | 449 kts | 174° |
| 2026-04-24 14:13 | 37.80813 | 140.60706 | 32319 ft | 439 kts | 179° |
| 2026-04-24 14:13 | 37.77862 | 140.61410 | 32576 ft | 429 kts | 185° |
| 2026-04-24 14:13 | 37.74930 | 140.61780 | 32806 ft | 421 kts | 189° |
| 2026-04-24 14:13 | 37.72026 | 140.61832 | 33111 ft | 410 kts | 194° |
| 2026-04-24 14:14 | 37.69221 | 140.61604 | 33467 ft | 399 kts | 199° |
| 2026-04-24 14:14 | 37.66520 | 140.61112 | 33757 ft | 391 kts | 203° |
| 2026-04-24 14:14 | 37.61272 | 140.59642 | 34360 ft | 383 kts | 205° |
| 2026-04-24 14:15 | 37.58692 | 140.58907 | 34598 ft | 383 kts | 205° |
| 2026-04-24 14:15 | 37.56083 | 140.58154 | 34797 ft | 383 kts | 205° |
| 2026-04-24 14:15 | 37.53516 | 140.57419 | 34978 ft | 383 kts | 205° |
| 2026-04-24 14:15 | 37.50906 | 140.56670 | 35146 ft | 384 kts | 205° |
| 2026-04-24 14:16 | 37.48301 | 140.55922 | 35306 ft | 384 kts | 205° |
| 2026-04-24 14:16 | 37.45686 | 140.55177 | 35491 ft | 384 kts | 205° |
| 2026-04-24 14:16 | 37.43109 | 140.54443 | 35689 ft | 383 kts | 205° |
| 2026-04-24 14:17 | 37.37893 | 140.52954 | 36067 ft | 381 kts | 205° |
| 2026-04-24 14:17 | 37.35313 | 140.52217 | 36178 ft | 380 kts | 205° |
| 2026-04-24 14:17 | 37.30191 | 140.50763 | 35327 ft | 379 kts | 206° |
| 2026-04-24 14:18 | 37.27634 | 140.50032 | 34538 ft | 380 kts | 205° |
| 2026-04-24 14:18 | 37.25034 | 140.49287 | 33627 ft | 385 kts | 206° |
| 2026-04-24 14:18 | 37.22433 | 140.48538 | 32688 ft | 390 kts | 205° |
| 2026-04-24 14:18 | 37.19796 | 140.47780 | 31783 ft | 396 kts | 204° |
| 2026-04-24 14:19 | 37.17094 | 140.47011 | 30924 ft | 399 kts | 203° |
| 2026-04-24 14:19 | 37.14401 | 140.46242 | 29910 ft | 406 kts | 203° |
| 2026-04-24 14:19 | 37.11612 | 140.45442 | 28675 ft | 417 kts | 202° |
| 2026-04-24 14:19 | 37.08793 | 140.44638 | 27399 ft | 428 kts | 201° |
| 2026-04-24 14:20 | 37.05857 | 140.43806 | 26151 ft | 436 kts | 200° |
| 2026-04-24 14:20 | 37.02938 | 140.42989 | 25433 ft | 430 kts | 200° |
| 2026-04-24 14:20 | 36.99993 | 140.42172 | 24877 ft | 434 kts | 200° |
| 2026-04-24 14:20 | 36.97068 | 140.41350 | 24009 ft | 436 kts | 199° |
| 2026-04-24 14:21 | 36.94123 | 140.40515 | 23050 ft | 438 kts | 199° |
| 2026-04-24 14:21 | 36.91143 | 140.39674 | 22361 ft | 433 kts | 199° |
| 2026-04-24 14:21 | 36.88222 | 140.38855 | 21707 ft | 429 kts | 199° |
| 2026-04-24 14:21 | 36.85334 | 140.38043 | 21039 ft | 426 kts | 198° |
| 2026-04-24 14:22 | 36.82452 | 140.37231 | 20392 ft | 423 kts | 198° |
| 2026-04-24 14:22 | 36.79585 | 140.36426 | 19729 ft | 421 kts | 198° |
| 2026-04-24 14:22 | 36.73912 | 140.34891 | 18445 ft | 418 kts | 195° |
| 2026-04-24 14:23 | 36.71066 | 140.34300 | 17807 ft | 417 kts | 193° |
| 2026-04-24 14:23 | 36.68208 | 140.33725 | 17179 ft | 416 kts | 193° |
| 2026-04-24 14:23 | 36.65349 | 140.33153 | 16547 ft | 414 kts | 193° |
| 2026-04-24 14:23 | 36.62522 | 140.32585 | 15944 ft | 414 kts | 193° |
| 2026-04-24 14:24 | 36.59655 | 140.32005 | 15849 ft | 423 kts | 193° |
| 2026-04-24 14:24 | 36.56732 | 140.31418 | 15735 ft | 426 kts | 192° |
| 2026-04-24 14:24 | 36.53799 | 140.30832 | 15488 ft | 424 kts | 192° |
| 2026-04-24 14:24 | 36.50898 | 140.30252 | 15241 ft | 423 kts | 192° |
| 2026-04-24 14:25 | 36.48003 | 140.29675 | 15001 ft | 422 kts | 192° |
| 2026-04-24 14:25 | 36.45113 | 140.29099 | 14759 ft | 420 kts | 192° |
| 2026-04-24 14:25 | 36.42229 | 140.28520 | 14509 ft | 419 kts | 192° |
| 2026-04-24 14:25 | 36.39333 | 140.27942 | 14261 ft | 419 kts | 192° |
| 2026-04-24 14:26 | 36.36475 | 140.27370 | 14018 ft | 417 kts | 192° |
| 2026-04-24 14:26 | 36.33603 | 140.26798 | 13779 ft | 416 kts | 192° |
| 2026-04-24 14:26 | 36.30762 | 140.26231 | 13543 ft | 416 kts | 192° |
| 2026-04-24 14:26 | 36.27893 | 140.25662 | 13286 ft | 414 kts | 191° |
| 2026-04-24 14:27 | 36.25078 | 140.25101 | 13039 ft | 413 kts | 191° |
| 2026-04-24 14:27 | 36.22235 | 140.24536 | 12786 ft | 413 kts | 191° |
| 2026-04-24 14:27 | 36.19374 | 140.23970 | 12522 ft | 412 kts | 191° |
| 2026-04-24 14:27 | 36.16577 | 140.23413 | 12254 ft | 411 kts | 191° |
| 2026-04-24 14:28 | 36.13728 | 140.22849 | 11971 ft | 410 kts | 191° |
| 2026-04-24 14:28 | 36.10922 | 140.22293 | 11699 ft | 409 kts | 191° |
| 2026-04-24 14:28 | 36.08124 | 140.21739 | 11424 ft | 408 kts | 191° |
| 2026-04-24 14:28 | 36.05344 | 140.21188 | 11191 ft | 408 kts | 191° |
| 2026-04-24 14:29 | 36.02535 | 140.20638 | 11016 ft | 407 kts | 190° |
| 2026-04-24 14:29 | 35.99711 | 140.20200 | 10997 ft | 408 kts | 188° |
| 2026-04-24 14:29 | 35.96907 | 140.19800 | 10986 ft | 409 kts | 188° |
| 2026-04-24 14:29 | 35.94053 | 140.19397 | 10994 ft | 408 kts | 188° |
| 2026-04-24 14:30 | 35.91248 | 140.19003 | 10999 ft | 408 kts | 188° |
| 2026-04-24 14:30 | 35.88416 | 140.18602 | 10992 ft | 408 kts | 188° |
| 2026-04-24 14:30 | 35.85592 | 140.18208 | 11020 ft | 401 kts | 188° |
| 2026-04-24 14:30 | 35.82883 | 140.17827 | 10963 ft | 382 kts | 188° |
| 2026-04-24 14:31 | 35.80315 | 140.17468 | 10909 ft | 364 kts | 188° |
| 2026-04-24 14:31 | 35.77845 | 140.17122 | 10857 ft | 347 kts | 188° |
| 2026-04-24 14:31 | 35.75519 | 140.16795 | 10802 ft | 331 kts | 188° |
| 2026-04-24 14:31 | 35.73261 | 140.16478 | 10742 ft | 316 kts | 188° |
| 2026-04-24 14:32 | 35.71135 | 140.16180 | 10593 ft | 305 kts | 188° |
| 2026-04-24 14:32 | 35.69041 | 140.15881 | 10319 ft | 300 kts | 188° |
| 2026-04-24 14:32 | 35.66976 | 140.15591 | 10108 ft | 295 kts | 188° |
| 2026-04-24 14:32 | 35.64935 | 140.15300 | 9859 ft | 297 kts | 188° |
| 2026-04-24 14:33 | 35.62899 | 140.15013 | 9521 ft | 294 kts | 188° |
| 2026-04-24 14:33 | 35.60878 | 140.14731 | 9193 ft | 293 kts | 188° |
| 2026-04-24 14:33 | 35.58843 | 140.14445 | 8870 ft | 290 kts | 188° |
| 2026-04-24 14:33 | 35.56864 | 140.14166 | 8555 ft | 288 kts | 188° |
| 2026-04-24 14:34 | 35.54859 | 140.13886 | 8225 ft | 287 kts | 188° |
| 2026-04-24 14:34 | 35.52892 | 140.13611 | 7907 ft | 286 kts | 188° |
| 2026-04-24 14:34 | 35.50921 | 140.13335 | 7591 ft | 284 kts | 187° |
| 2026-04-24 14:34 | 35.48950 | 140.13058 | 7267 ft | 283 kts | 188° |
| 2026-04-24 14:35 | 35.47011 | 140.12788 | 6933 ft | 282 kts | 187° |
| 2026-04-24 14:35 | 35.45051 | 140.12515 | 6569 ft | 281 kts | 188° |
| 2026-04-24 14:35 | 35.43118 | 140.12245 | 6249 ft | 279 kts | 187° |
| 2026-04-24 14:35 | 35.40575 | 140.11887 | 5819 ft | 277 kts | 187° |
| 2026-04-24 14:36 | 35.39290 | 140.11706 | 5596 ft | 277 kts | 186° |
| 2026-04-24 14:36 | 35.37363 | 140.11435 | 5267 ft | 276 kts | 186° |
| 2026-04-24 14:36 | 35.35463 | 140.11171 | 5064 ft | 274 kts | 186° |
| 2026-04-24 14:36 | 35.33587 | 140.10886 | 4969 ft | 272 kts | 186° |
| 2026-04-24 14:37 | 35.31749 | 140.10573 | 4872 ft | 260 kts | 187° |
| 2026-04-24 14:37 | 35.29998 | 140.10098 | 4780 ft | 258 kts | 201° |
| 2026-04-24 14:37 | 35.28494 | 140.08946 | 4686 ft | 258 kts | 229° |
| 2026-04-24 14:37 | 35.27606 | 140.07053 | 4633 ft | 249 kts | 254° |
| 2026-04-24 14:38 | 35.27058 | 140.05104 | 4574 ft | 241 kts | 253° |
| 2026-04-24 14:38 | 35.26726 | 140.03120 | 4501 ft | 237 kts | 275° |
| 2026-04-24 14:38 | 35.27060 | 140.01195 | 4510 ft | 231 kts | 299° |
| 2026-04-24 14:38 | 35.27975 | 139.99533 | 4520 ft | 236 kts | 315° |
| 2026-04-24 14:39 | 35.29154 | 139.98141 | 4473 ft | 235 kts | 326° |
| 2026-04-24 14:39 | 35.30518 | 139.97082 | 4426 ft | 233 kts | 333° |
| 2026-04-24 14:39 | 35.31915 | 139.96054 | 4383 ft | 233 kts | 333° |
| 2026-04-24 14:39 | 35.33295 | 139.95059 | 4328 ft | 232 kts | 333° |
| 2026-04-24 14:40 | 35.34697 | 139.94084 | 4160 ft | 227 kts | 334° |
| 2026-04-24 14:40 | 35.36039 | 139.93164 | 4015 ft | 218 kts | 335° |
| 2026-04-24 14:40 | 35.37359 | 139.92290 | 3809 ft | 214 kts | 335° |
| 2026-04-24 14:40 | 35.38666 | 139.91397 | 3485 ft | 215 kts | 335° |
| 2026-04-24 14:41 | 35.39968 | 139.90477 | 3147 ft | 213 kts | 334° |
| 2026-04-24 14:41 | 35.41195 | 139.89581 | 2868 ft | 203 kts | 334° |
| 2026-04-24 14:41 | 35.42373 | 139.88710 | 2799 ft | 187 kts | 334° |
| 2026-04-24 14:41 | 35.43767 | 139.87698 | 2518 ft | 167 kts | 335° |
| 2026-04-24 14:42 | 35.44424 | 139.87227 | 2336 ft | 158 kts | 337° |
| 2026-04-24 14:42 | 35.45375 | 139.86621 | 2070 ft | 153 kts | 338° |
| 2026-04-24 14:42 | 35.46300 | 139.85977 | 1825 ft | 152 kts | 336° |
| 2026-04-24 14:42 | 35.47173 | 139.85318 | 1634 ft | 142 kts | 336° |
| 2026-04-24 14:43 | 35.48011 | 139.84734 | 1401 ft | 138 kts | 337° |
| 2026-04-24 14:43 | 35.48851 | 139.84157 | 1234 ft | 139 kts | 336° |
| 2026-04-24 14:43 | 35.49963 | 139.83360 | 1014 ft | 138 kts | 335° |
| 2026-04-24 14:43 | 35.50512 | 139.82959 | 874 ft | 138 kts | 335° |
| 2026-04-24 14:44 | 35.51340 | 139.82379 | 721 ft | 137 kts | 335° |
| 2026-04-24 14:44 | 35.52177 | 139.81787 | 525 ft | 137 kts | 336° |
| 2026-04-24 14:44 | 35.52994 | 139.81207 | 348 ft | 137 kts | 334° |
| 2026-04-24 14:44 | 35.53821 | 139.80620 | 141 ft | 135 kts | 334° |
| 2026-04-24 14:45 | 35.54618 | 139.80051 | 10 ft | 126 kts | 333° |
| 2026-04-24 14:45 | 35.55249 | 139.79610 | 9 ft | 71 kts | 327° |
| 2026-04-24 14:45 | 35.55470 | 139.79367 | 9 ft | 16 kts | 301° |
| 2026-04-24 14:45 | 35.55499 | 139.79303 | 8 ft | 5 kts | 299° |
| 2026-04-24 14:46 | 35.55512 | 139.79248 | 9 ft | 5 kts | 258° |
| 2026-04-24 14:46 | 35.55502 | 139.79222 | 8 ft | 4 kts | 242° |
| 2026-04-24 14:46 | 35.55490 | 139.79182 | 9 ft | 5 kts | 251° |
| 2026-04-24 14:46 | 35.55477 | 139.79134 | 9 ft | 5 kts | 251° |
| 2026-04-24 14:47 | 35.55457 | 139.79095 | 10 ft | 4 kts | 206° |
| 2026-04-24 14:47 | 35.55401 | 139.79115 | 11 ft | 8 kts | 151° |
| 2026-04-24 14:47 | 35.55365 | 139.79140 | 11 ft | 9 kts | 150° |
| 2026-04-24 14:47 | 35.55303 | 139.79185 | 11 ft | 10 kts | 151° |
| 2026-04-24 14:48 | 35.55234 | 139.79233 | 10 ft | 12 kts | 150° |
| 2026-04-24 14:48 | 35.55156 | 139.79288 | 10 ft | 13 kts | 150° |
| 2026-04-24 14:48 | 35.55059 | 139.79268 | 11 ft | 11 kts | 238° |
| 2026-04-24 14:48 | 35.55036 | 139.79222 | 14 ft | 5 kts | 238° |
| 2026-04-24 14:49 | 35.55008 | 139.79219 | 16 ft | 0 kts | 148° |
| 2026-04-24 14:49 | 35.54988 | 139.79233 | 15 ft | 6 kts | 150° |
| 2026-04-24 14:49 | 35.54971 | 139.79245 | 15 ft | 0 kts | 150° |
| 2026-04-24 14:49 | 35.54970 | 139.79246 | 15 ft | 0 kts | 150° |